METAR AND TAF INFORMATION
METAR FOR GCXO
ADDS - METARS form results

(1407 UTC 22 April 2018)
Data provider http://aviationweather.gov/adds/metars/
 
METAR text: GCXO 221400Z 30016KT 9999 BKN004 BKN008 14/14 Q1017 TEMPO RA
Conditions at: GCXO (TENERIFE/LOS ROD, ES) observed 1400 UTC 22 April 2018
Temperature: 14.0°C (57°F)
Dewpoint: 14.0°C (57°F) [RH = 100%]
Pressure (altimeter): 30.03 inches Hg (1017.0 mb)
Winds: from the WNW (300 degrees) at 18 MPH (16 knots; 8.3 m/s)
Visibility: 6 or more miles (10+ km)
Ceiling: 400 feet AGL
Clouds: broken clouds at 400 feet AGL
broken clouds at 800 feet AGL
Weather: no significant weather observed at this time

METAR text: GCXO 221330Z 30015KT 9999 3000NW BCFG FEW000 BKN003 14/13 Q1017 RERA TEMPO RA
Conditions at: GCXO (TENERIFE/LOS ROD, ES) observed 1330 UTC 22 April 2018
Temperature: 14.0°C (57°F)
Dewpoint: 13.0°C (55°F) [RH = 94%]
Pressure (altimeter): 30.03 inches Hg (1017.0 mb)
Winds: from the WNW (300 degrees) at 17 MPH (15 knots; 7.8 m/s)
Visibility: 6 or more miles (10+ km)
Ceiling: 300 feet AGL
Clouds: few clouds at 0 feet AGL
broken clouds at 300 feet AGL
Weather: BCFG  (patches of fog)

METAR text: GCXO 221319Z 30014KT 8000 2500NW RA PRFG FEW000 BKN004 14/13 Q1017 TEMPO NSW
Conditions at: GCXO (TENERIFE/LOS ROD, ES) observed 1319 UTC 22 April 2018
Temperature: 14.0°C (57°F)
Dewpoint: 13.0°C (55°F) [RH = 94%]
Pressure (altimeter): 30.03 inches Hg (1017.0 mb)
Winds: from the WNW (300 degrees) at 16 MPH (14 knots; 7.3 m/s)
Visibility: 5 miles (8 km)
Ceiling: 400 feet AGL
Clouds: few clouds at 0 feet AGL
broken clouds at 400 feet AGL
Weather: PRFG RA  (partial fog, rain)

Forecast for: GCXO (TENERIFE/LOS ROD, ES)
Text: TAF GCXO 220800Z 2209/2309 30015KT 9999 BKN014 TX15/2214Z TN10/2306Z
Forecast period: 0900 UTC 22 April 2018 to 0900 UTC 23 April 2018
Forecast type: FROM: standard forecast or significant change
Winds: from the WNW (300 degrees) at 17 MPH (15 knots; 7.8 m/s)
Visibility: 6 or more miles (10+ km)
Ceiling: 1400 feet AGL
Clouds: broken clouds at 1400 feet AGL
Weather: no significant weather forecast for this period
Forecast for: GCXO (TENERIFE/LOS ROD, ES)
Text: TAF GCXO 220800Z 2209/2309 30015KT 9999 BKN014 TX15/2214Z TN10/2306Z
Forecast period: 0900 UTC 22 April 2018 to 0900 UTC 23 April 2018
Forecast type: FROM: standard forecast or significant change
Winds: from the WNW (300 degrees) at 17 MPH (15 knots; 7.8 m/s)
Visibility: 6 or more miles (10+ km)
Ceiling: 1400 feet AGL
Clouds: broken clouds at 1400 feet AGL
Weather: no significant weather forecast for this period
Forecast for: GCXO (TENERIFE/LOS ROD, ES)
Text: TAF GCXO 220800Z 2209/2309 30015KT 9999 BKN014 TX15/2214Z TN10/2306Z
Forecast period: 0900 to 2300 UTC 22 April 2018
Forecast type: TEMPORARY: The following changes expected for less than half the time period
Winds: from the W (280 degrees) at 20 MPH (17 knots; 8.8 m/s)
gusting to 31 MPH (27 knots; 14.0 m/s)
Weather: no significant weather forecast for this period
Forecast for: GCXO (TENERIFE/LOS ROD, ES)
Text: TAF GCXO 220800Z 2209/2309 30015KT 9999 BKN014 TX15/2214Z TN10/2306Z
Forecast period: 0900 to 2300 UTC 22 April 2018
Forecast type: TEMPORARY: The following changes expected for less than half the time period
Winds: from the W (280 degrees) at 20 MPH (17 knots; 8.8 m/s)
gusting to 31 MPH (27 knots; 14.0 m/s)
Weather: no significant weather forecast for this period
Forecast for: GCXO (TENERIFE/LOS ROD, ES)
Text: TAF GCXO 220800Z 2209/2309 30015KT 9999 BKN014 TX15/2214Z TN10/2306Z
Forecast period: 0900 UTC 22 April 2018 to 0900 UTC 23 April 2018
Forecast type: TEMPORARY: The following changes expected for less than half the time period
Visibility: 3 miles (5 km)
Ceiling: 800 feet AGL
Clouds: broken clouds at 800 feet AGL
Weather: RA DZ  (rain, drizzle)
Forecast for: GCXO (TENERIFE/LOS ROD, ES)
Text: TAF GCXO 220800Z 2209/2309 30015KT 9999 BKN014 TX15/2214Z TN10/2306Z
Forecast period: 0900 UTC 22 April 2018 to 0900 UTC 23 April 2018
Forecast type: TEMPORARY: The following changes expected for less than half the time period
Visibility: 3 miles (5 km)
Ceiling: 800 feet AGL
Clouds: broken clouds at 800 feet AGL
Weather: RA DZ  (rain, drizzle)
Forecast for: GCXO (TENERIFE/LOS ROD, ES)
Text: TAF GCXO 220800Z 2209/2309 30015KT 9999 BKN014 TX15/2214Z TN10/2306Z
Forecast period: 0900 UTC 22 April 2018 to 0900 UTC 23 April 2018
Forecast type: TEMPORARY: The following changes expected for less than half the time period
Visibility: 1.80 miles (2.90 km)
Ceiling: 400 feet AGL
Clouds: broken clouds at 400 feet AGL
Weather: RA BCFG  (rain, patches of fog)
Forecast for: GCXO (TENERIFE/LOS ROD, ES)
Text: TAF GCXO 220800Z 2209/2309 30015KT 9999 BKN014 TX15/2214Z TN10/2306Z
Forecast period: 0900 UTC 22 April 2018 to 0900 UTC 23 April 2018
Forecast type: TEMPORARY: The following changes expected for less than half the time period
Visibility: 1.80 miles (2.90 km)
Ceiling: 400 feet AGL
Clouds: broken clouds at 400 feet AGL
Weather: RA BCFG  (rain, patches of fog)

 AIRPORT MAP

 RUNWAY INFORMATION
Runway 12 Runway length 11155 ft Runway width 148 ft
Runway elevation 2060 ft Runway displaced threshold 0 ft Runway heading 111
Runway 30 Runway length 11155 ft Runway width 148 ft
Runway elevation 2002 ft Runway displaced threshold 0 ft Runway heading 291

 AIRPORT FREQUENCIES
Type APP Name APP Frequency 119.7 MHZ
Type ATIS Name ATIS Frequency 118.575 MHZ
Type GND Name GND Frequency 121.7 MHZ
Type TWR Name TWR Frequency 118.7 MHZ

 AIRPORT NEAR NAVIGATION AIDS
Type VOR-DME Name Tenerife Norte Frequency 117700 KHZ
Type NDB Name Tenerife Norte Frequency 410 KHZ



Powered by Virtual Airlines Manager [v2.6.2]